createdAt,value
2018-12-30T00:01:23.057Z,101686.76
2018-12-30T00:03:50.446Z,101682.44
2018-12-30T00:06:40.233Z,101681.58
2018-12-30T00:09:18.632Z,101683.75
2018-12-30T00:11:45.888Z,101672.16
2018-12-30T00:14:13.055Z,101688.59
2018-12-30T00:16:48.476Z,101685.69
2018-12-30T00:19:16.015Z,101700.48
2018-12-30T00:22:05.183Z,101675.97
2018-12-30T00:24:32.398Z,101680.73
2018-12-30T00:26:59.559Z,101699.25
2018-12-30T00:29:26.798Z,101700.75
2018-12-30T00:31:53.975Z,101698.47
2018-12-30T00:35:08.582Z,101707.87
2018-12-30T00:44:10.790Z,101724.72
2018-12-30T00:46:37.987Z,101734.02
2018-12-30T00:49:17.230Z,101738.53
2018-12-30T00:57:25.307Z,101764.89
2018-12-30T00:59:53.253Z,101762.30
2018-12-30T01:02:20.408Z,101774.41
2018-12-30T01:05:28.486Z,101772.10
2018-12-30T01:07:55.977Z,101764.55
2018-12-30T01:11:04.055Z,101768.59
2018-12-30T01:13:31.448Z,101760.67
2018-12-30T01:15:58.612Z,101769.58
2018-12-30T01:18:25.889Z,101765.67
2018-12-30T01:21:12.500Z,101769.81
2018-12-30T01:23:39.973Z,101758.86
2018-12-30T01:26:07.177Z,101766.19
2018-12-30T01:28:53.855Z,101768.86
2018-12-30T01:31:21.416Z,101763.23
2018-12-30T01:34:08.176Z,101782.18
2018-12-30T01:36:35.438Z,101788.34
2018-12-30T01:39:43.368Z,101781.97
2018-12-30T01:42:10.565Z,101774.40
2018-12-30T01:44:37.736Z,101783.36
2018-12-30T01:47:04.930Z,101777.73
2018-12-30T01:50:12.819Z,101800.08
2018-12-30T01:52:59.523Z,101788.88
2018-12-30T01:55:26.656Z,101798.83
2018-12-30T02:00:34.117Z,101794.23
2018-12-30T02:03:01.252Z,101807.02
2018-12-30T02:05:28.559Z,101813.63
2018-12-30T02:11:09.798Z,101806.27
2018-12-30T02:13:37.181Z,101819.33
2018-12-30T02:19:17.347Z,101828.06
2018-12-30T02:21:44.585Z,101830.20
2018-12-30T02:24:31.409Z,101835.27
2018-12-30T02:26:59.031Z,101831.40
2018-12-30T02:29:45.755Z,101835.44
2018-12-30T02:32:32.928Z,101837.08
2018-12-30T02:35:12.503Z,101833.14
2018-12-30T02:37:39.688Z,101845.55
2018-12-30T02:40:47.741Z,101848.19
2018-12-30T02:43:14.976Z,101842.94
2018-12-30T02:46:42.907Z,101852.28
2018-12-30T02:49:10.401Z,101849.33
2018-12-30T02:52:18.423Z,101848.06
2018-12-30T02:54:45.603Z,101854.28
2018-12-30T02:57:12.659Z,101860.84
2018-12-30T03:00:07.820Z,101855.78
2018-12-30T03:03:15.729Z,101852.52
2018-12-30T03:05:42.849Z,101857.70
2018-12-30T03:08:10.013Z,101863.76
2018-12-30T03:10:37.205Z,101860.20
2018-12-30T03:13:04.291Z,101866.23
2018-12-30T03:19:06.357Z,101860.30
2018-12-30T03:24:13.449Z,101865.80
2018-12-30T03:27:12.661Z,101868.11
2018-12-30T03:29:39.849Z,101874.84
2018-12-30T03:32:07.425Z,101865.87
2018-12-30T03:34:34.646Z,101873.14
2018-12-30T03:37:02.127Z,101872.59
2018-12-30T03:39:29.328Z,101878.20
2018-12-30T03:44:57.574Z,101894.92
2018-12-30T03:47:44.201Z,101888.48
2018-12-30T03:50:11.837Z,101895.34
2018-12-30T03:52:39.071Z,101905.02
2018-12-30T03:55:06.547Z,101911.64
2018-12-30T03:57:33.771Z,101908.51
2018-12-30T04:00:00.937Z,101905.02
2018-12-30T04:05:30.051Z,101915.58
2018-12-30T04:07:57.525Z,101911.52
2018-12-30T04:10:56.400Z,101916.12
2018-12-30T04:13:23.565Z,101905.94
2018-12-30T04:15:50.736Z,101909.05
2018-12-30T04:18:19.734Z,101918.14
2018-12-30T04:20:46.901Z,101914.36
2018-12-30T04:23:54.928Z,101915.07
2018-12-30T04:26:22.516Z,101918.28
2018-12-30T04:29:09.189Z,101918.25
2018-12-30T04:35:10.635Z,101922.75
2018-12-30T04:37:57.624Z,101934.57
2018-12-30T04:40:24.853Z,101938.51
2018-12-30T04:42:52.134Z,101945.66
2018-12-30T04:45:38.828Z,101949.33
2018-12-30T04:48:05.885Z,101957.80
2018-12-30T04:50:58.982Z,101969.36
2018-12-30T04:53:26.184Z,101973.48
2018-12-30T04:56:12.838Z,101959.73
2018-12-30T05:01:52.202Z,101973.94
2018-12-30T05:04:31.003Z,101973.34
2018-12-30T05:06:58.185Z,101973.55
2018-12-30T05:09:25.476Z,101978.40
2018-12-30T05:14:55.303Z,101968.38
2018-12-30T05:23:03.411Z,101983.14
2018-12-30T05:25:30.600Z,101977.47
2018-12-30T05:27:57.806Z,101987.52
2018-12-30T05:30:25.018Z,101991.91
2018-12-30T05:36:12.706Z,101997.15
2018-12-30T05:41:48.018Z,102009.09
2018-12-30T05:44:15.090Z,102009.34
2018-12-30T05:46:42.277Z,102007.58
2018-12-30T05:49:50.236Z,102025.55
2018-12-30T05:52:17.418Z,102035.31
2018-12-30T05:54:44.822Z,102037.55
2018-12-30T05:57:31.505Z,102037.02
2018-12-30T05:59:58.576Z,102044.16
2018-12-30T06:02:25.760Z,102036.34
2018-12-30T06:05:12.353Z,102039.94
2018-12-30T06:07:39.620Z,102047.31
2018-12-30T06:13:08.251Z,102074.81
2018-12-30T06:15:35.317Z,102089.62
2018-12-30T06:18:02.375Z,102094.75
2018-12-30T06:23:49.783Z,102117.17
2018-12-30T06:26:57.781Z,102112.93
2018-12-30T06:29:25.044Z,102112.34
2018-12-30T06:31:52.097Z,102121.58
2018-12-30T06:34:38.887Z,102124.24
2018-12-30T06:37:06.075Z,102137.70
2018-12-30T06:39:35.053Z,102132.11
2018-12-30T06:42:02.280Z,102130.02
2018-12-30T06:47:50.531Z,102131.52
2018-12-30T06:50:37.193Z,102138.58
2018-12-30T06:53:04.409Z,102142.23
2018-12-30T06:55:51.038Z,102136.45
2018-12-30T06:58:18.266Z,102144.80
2018-12-30T07:04:05.707Z,102135.27
2018-12-30T07:06:32.897Z,102133.30
2018-12-30T07:12:21.018Z,102140.62
2018-12-30T07:14:48.207Z,102146.42
2018-12-30T07:17:15.385Z,102139.63
2018-12-30T07:19:42.593Z,102144.15
2018-12-30T07:22:29.224Z,102148.77
2018-12-30T07:24:56.474Z,102156.99
2018-12-30T07:27:23.652Z,102157.73
2018-12-30T07:29:50.880Z,102169.66
2018-12-30T07:32:37.577Z,102170.92
2018-12-30T07:35:04.792Z,102172.13
2018-12-30T07:38:12.869Z,102183.95
2018-12-30T07:43:19.088Z,102212.23
2018-12-30T07:45:46.465Z,102211.84
2018-12-30T07:48:13.688Z,102225.19
2018-12-30T07:53:40.113Z,102230.08
2018-12-30T07:56:07.301Z,102241.91
2018-12-30T07:58:34.497Z,102251.09
2018-12-30T08:01:01.813Z,102250.90
2018-12-30T08:03:29.069Z,102258.09
2018-12-30T08:05:56.140Z,102258.31
2018-12-30T08:08:23.459Z,102258.20
2018-12-30T08:11:31.458Z,102245.61
2018-12-30T08:14:18.189Z,102250.66
2018-12-30T08:16:45.333Z,102257.95
2018-12-30T08:19:32.025Z,102245.65
2018-12-30T08:22:18.654Z,102243.17
2018-12-30T08:24:45.898Z,102243.58
2018-12-30T08:27:32.535Z,102253.91
2018-12-30T08:29:59.854Z,102262.11
2018-12-30T08:35:06.712Z,102278.16
2018-12-30T08:37:34.217Z,102271.70
2018-12-30T08:40:13.645Z,102274.47
2018-12-30T08:42:40.814Z,102281.58
2018-12-30T08:45:08.015Z,102275.06
2018-12-30T08:47:35.242Z,102273.80
2018-12-30T08:50:14.692Z,102274.47
2018-12-30T08:52:41.872Z,102277.94
2018-12-30T08:55:09.067Z,102285.23
2018-12-30T08:57:36.247Z,102289.04
2018-12-30T09:00:44.429Z,102276.05
2018-12-30T09:03:11.555Z,102288.80
2018-12-30T09:06:19.514Z,102291.04
2018-12-30T09:09:06.139Z,102299.70
2018-12-30T09:11:33.466Z,102308.55
2018-12-30T09:17:21.077Z,102308.83
2018-12-30T09:19:48.244Z,102304.73
2018-12-30T09:22:15.454Z,102307.89
2018-12-30T09:24:42.992Z,102303.19
2018-12-30T09:30:56.483Z,102309.39
2018-12-30T09:33:43.009Z,102305.75
2018-12-30T09:36:10.356Z,102318.95
2018-12-30T09:38:56.920Z,102314.62
2018-12-30T09:41:36.243Z,102327.89
2018-12-30T09:44:03.360Z,102333.41
2018-12-30T09:46:30.520Z,102335.49
2018-12-30T09:49:17.434Z,102335.23
2018-12-30T09:51:44.581Z,102336.64
2018-12-30T09:54:31.649Z,102336.97
2018-12-30T09:57:18.319Z,102336.16
2018-12-30T09:59:45.448Z,102323.20
2018-12-30T10:02:12.672Z,102322.91
2018-12-30T10:04:40.225Z,102328.11
2018-12-30T10:07:07.556Z,102334.34
2018-12-30T10:12:14.649Z,102340.80
2018-12-30T10:14:53.666Z,102352.37
2018-12-30T10:20:22.009Z,102353.11
2018-12-30T10:22:49.211Z,102368.49
2018-12-30T10:25:16.423Z,102367.45
2018-12-30T10:34:05.026Z,102358.51
2018-12-30T10:36:52.032Z,102352.24
2018-12-30T10:39:19.265Z,102344.66
2018-12-30T10:41:46.345Z,102347.55
2018-12-30T10:44:13.566Z,102353.78
2018-12-30T10:49:41.922Z,102352.05
2018-12-30T10:52:09.030Z,102345.23
2018-12-30T10:54:38.014Z,102341.64
2018-12-30T10:57:05.136Z,102354.30
2018-12-30T10:59:51.765Z,102362.30
2018-12-30T11:02:19.301Z,102357.03
2018-12-30T11:04:46.509Z,102368.34
2018-12-30T11:13:16.041Z,102370.30
2018-12-30T11:15:43.127Z,102371.43
2018-12-30T11:18:10.213Z,102378.56
2018-12-30T11:20:37.317Z,102380.45
2018-12-30T11:23:04.422Z,102375.09
2018-12-30T11:25:31.606Z,102370.04
2018-12-30T11:28:18.304Z,102358.67
2018-12-30T11:33:58.514Z,102363.52
2018-12-30T11:36:25.726Z,102352.14
2018-12-30T11:41:45.572Z,102343.48
2018-12-30T11:44:12.676Z,102335.58
2018-12-30T11:46:39.886Z,102324.87
2018-12-30T11:52:08.262Z,102314.19
2018-12-30T12:00:16.836Z,102310.31
2018-12-30T12:02:44.544Z,102297.67
2018-12-30T12:08:51.190Z,102307.34
2018-12-30T12:11:18.712Z,102294.53
2018-12-30T12:14:05.381Z,102301.73
2018-12-30T12:16:32.547Z,102296.14
2018-12-30T12:18:59.711Z,102297.02
2018-12-30T12:21:26.940Z,102290.13
2018-12-30T12:23:54.115Z,102288.20
2018-12-30T12:26:21.336Z,102288.66
2018-12-30T12:28:48.547Z,102294.08
2018-12-30T12:31:15.663Z,102285.84
2018-12-30T12:33:55.815Z,102287.86
2018-12-30T12:36:23.012Z,102289.69
2018-12-30T12:38:50.288Z,102292.17
2018-12-30T12:41:17.761Z,102283.11
2018-12-30T12:43:44.978Z,102287.16
2018-12-30T12:46:12.152Z,102283.56
2018-12-30T12:48:39.364Z,102273.76
2018-12-30T12:51:06.495Z,102285.06
2018-12-30T12:53:34.128Z,102279.56
2018-12-30T12:56:01.718Z,102280.05
2018-12-30T13:01:49.430Z,102292.98
2018-12-30T13:04:16.946Z,102294.77
2018-12-30T13:07:16.068Z,102295.89
2018-12-30T13:09:43.238Z,102292.06
2018-12-30T13:12:29.930Z,102295.63
2018-12-30T13:15:16.841Z,102296.59
2018-12-30T13:18:03.411Z,102298.75
2018-12-30T13:20:30.492Z,102300.00
2018-12-30T13:22:57.618Z,102305.98
2018-12-30T13:28:25.658Z,102315.05
2018-12-30T13:30:52.880Z,102310.61
2018-12-30T13:33:32.138Z,102321.20
2018-12-30T13:35:59.236Z,102324.70
2018-12-30T13:38:38.653Z,102323.76
2018-12-30T13:41:05.835Z,102323.33
2018-12-30T13:43:33.024Z,102324.97
2018-12-30T13:46:00.131Z,102326.30
2018-12-30T13:48:46.778Z,102326.84
2018-12-30T13:51:13.987Z,102332.52
2018-12-30T13:53:41.180Z,102338.92
2018-12-30T13:56:19.892Z,102344.45
2018-12-30T13:58:53.947Z,102346.48
2018-12-30T14:01:21.200Z,102353.51
2018-12-30T14:04:07.838Z,102359.75
2018-12-30T14:06:54.533Z,102373.39
2018-12-30T14:09:21.720Z,102366.00
2018-12-30T14:11:48.934Z,102376.61
2018-12-30T14:14:16.123Z,102369.50
2018-12-30T14:16:43.323Z,102378.27
2018-12-30T14:19:10.618Z,102369.81
2018-12-30T14:24:32.018Z,102368.59
2018-12-30T14:27:40.078Z,102362.34
2018-12-30T14:33:27.523Z,102365.11
2018-12-30T14:35:54.709Z,102366.17
2018-12-30T14:38:21.889Z,102365.17
2018-12-30T14:41:31.976Z,102368.83
2018-12-30T14:43:59.128Z,102377.40
2018-12-30T14:46:45.800Z,102385.09
2018-12-30T14:49:12.963Z,102381.02
2018-12-30T14:52:20.908Z,102368.45
2018-12-30T14:54:48.111Z,102370.22
2018-12-30T14:57:35.021Z,102365.49
2018-12-30T15:03:16.752Z,102369.94
2018-12-30T15:05:43.931Z,102371.34
2018-12-30T15:08:11.466Z,102375.92
2018-12-30T15:13:53.480Z,102373.29
2018-12-30T15:16:40.382Z,102376.25
2018-12-30T15:19:07.923Z,102382.10
2018-12-30T15:21:35.097Z,102397.53
2018-12-30T15:24:02.317Z,102398.79
2018-12-30T15:26:29.898Z,102393.73
2018-12-30T15:28:57.123Z,102385.50
2018-12-30T15:31:24.293Z,102384.77
2018-12-30T15:33:51.549Z,102380.49
2018-12-30T15:39:27.045Z,102378.01
2018-12-30T15:42:06.615Z,102366.77
2018-12-30T15:44:53.329Z,102365.12
2018-12-30T15:50:22.591Z,102369.65
2018-12-30T15:52:49.809Z,102372.89
2018-12-30T15:55:19.591Z,102369.09
2018-12-30T15:57:52.844Z,102350.36
2018-12-30T16:00:20.410Z,102334.90
2018-12-30T16:05:48.982Z,102329.64
2018-12-30T16:08:36.012Z,102328.52
2018-12-30T16:11:03.532Z,102341.91
2018-12-30T16:13:30.725Z,102339.62
2018-12-30T16:16:17.384Z,102339.72
2018-12-30T16:18:44.928Z,102342.50
2018-12-30T16:21:12.130Z,102358.34
2018-12-30T16:23:39.360Z,102363.95
2018-12-30T16:26:06.527Z,102361.52
2018-12-30T16:28:33.708Z,102353.44
2018-12-30T16:31:00.827Z,102353.15
2018-12-30T16:33:28.012Z,102351.97
2018-12-30T16:35:55.086Z,102346.23
2018-12-30T16:39:03.309Z,102353.28
2018-12-30T16:41:30.701Z,102354.55
2018-12-30T16:44:11.031Z,102370.24
2018-12-30T16:46:57.593Z,102365.05
2018-12-30T16:49:44.266Z,102366.02
2018-12-30T16:52:11.462Z,102368.87
2018-12-30T16:54:38.674Z,102368.83
2018-12-30T16:57:17.970Z,102371.98
2018-12-30T17:03:05.275Z,102366.41
2018-12-30T17:05:32.377Z,102372.05
2018-12-30T17:11:00.925Z,102368.87
2018-12-30T17:13:28.130Z,102369.55
2018-12-30T17:18:35.788Z,102363.32
2018-12-30T17:21:03.368Z,102362.53
2018-12-30T17:23:30.541Z,102354.61
2018-12-30T17:25:57.784Z,102350.67
2018-12-30T17:28:25.213Z,102350.91
2018-12-30T17:36:35.076Z,102350.33
2018-12-30T17:39:22.447Z,102350.12
2018-12-30T17:41:49.682Z,102354.55
2018-12-30T17:47:25.002Z,102361.19
2018-12-30T17:50:32.999Z,102356.73
2018-12-30T17:58:19.957Z,102359.98
2018-12-30T18:00:47.171Z,102357.65
2018-12-30T18:03:14.245Z,102364.61
2018-12-30T18:05:41.329Z,102366.94
2018-12-30T18:08:08.538Z,102377.56
2018-12-30T18:10:35.757Z,102383.68
2018-12-30T18:13:02.936Z,102379.00
2018-12-30T18:15:30.048Z,102376.43
2018-12-30T18:18:16.589Z,102372.09
2018-12-30T18:20:44.109Z,102372.59
2018-12-30T18:23:11.284Z,102382.98
2018-12-30T18:25:58.751Z,102371.87
2018-12-30T18:28:46.722Z,102370.80
2018-12-30T18:31:13.882Z,102376.47
2018-12-30T18:33:41.191Z,102377.56
2018-12-30T18:36:16.381Z,102368.99
2018-12-30T18:38:43.584Z,102364.48
2018-12-30T18:41:10.651Z,102373.02
2018-12-30T18:43:37.871Z,102364.26
2018-12-30T18:46:05.149Z,102358.75
2018-12-30T18:48:32.393Z,102368.51
2018-12-30T18:53:58.798Z,102368.33
2018-12-30T18:56:45.437Z,102374.33
2018-12-30T18:59:12.631Z,102382.87
2018-12-30T19:01:59.578Z,102382.59
2018-12-30T19:05:07.636Z,102390.39
2018-12-30T19:07:34.767Z,102392.67
2018-12-30T19:10:01.977Z,102382.25
2018-12-30T19:12:48.572Z,102384.97
2018-12-30T19:15:15.829Z,102381.20
2018-12-30T19:18:02.477Z,102380.02
2018-12-30T19:20:29.518Z,102373.59
2018-12-30T19:22:56.935Z,102367.86
2018-12-30T19:25:24.149Z,102368.66
2018-12-30T19:27:51.412Z,102368.34
2018-12-30T19:33:20.150Z,102384.25
2018-12-30T19:35:47.331Z,102376.87
2018-12-30T19:38:16.390Z,102389.16
2018-12-30T19:40:43.677Z,102385.95
2018-12-30T19:43:10.870Z,102384.81
2018-12-30T19:45:38.101Z,102391.87
2018-12-30T19:48:05.202Z,102386.80
2018-12-30T19:50:32.426Z,102387.89
2018-12-30T19:52:59.647Z,102388.06
2018-12-30T19:55:26.861Z,102386.41
2018-12-30T20:00:34.401Z,102390.17
2018-12-30T20:06:15.055Z,102392.00
2018-12-30T20:09:01.693Z,102394.45
2018-12-30T20:11:48.593Z,102390.34
2018-12-30T20:14:15.766Z,102380.19
2018-12-30T20:17:02.460Z,102380.80
2018-12-30T20:19:29.641Z,102371.75
2018-12-30T20:21:57.138Z,102369.17
2018-12-30T20:24:25.006Z,102370.66
2018-12-30T20:27:11.708Z,102362.44
2018-12-30T20:29:38.970Z,102353.02
2018-12-30T20:32:06.261Z,102347.91
2018-12-30T20:35:14.332Z,102346.34
2018-12-30T20:37:41.786Z,102344.55
2018-12-30T20:40:09.015Z,102342.41
2018-12-30T20:42:36.222Z,102337.00
2018-12-30T20:48:04.376Z,102334.63
2018-12-30T20:53:32.628Z,102340.67
2018-12-30T20:55:59.886Z,102334.95
2018-12-30T20:58:27.075Z,102338.31
2018-12-30T21:00:54.329Z,102340.19
2018-12-30T21:06:21.988Z,102342.77
2018-12-30T21:08:49.186Z,102347.61
2018-12-30T21:11:16.383Z,102335.45
2018-12-30T21:13:43.631Z,102336.59
2018-12-30T21:16:10.827Z,102331.34
2018-12-30T21:18:38.008Z,102328.67
2018-12-30T21:21:05.119Z,102326.67
2018-12-30T21:29:13.772Z,102314.20
2018-12-30T21:34:20.746Z,102309.71
2018-12-30T21:36:47.940Z,102310.94
2018-12-30T21:48:02.128Z,102305.34
2018-12-30T21:50:29.608Z,102306.52
2018-12-30T21:52:57.186Z,102302.80
2018-12-30T21:55:24.362Z,102305.42
2018-12-30T21:58:23.363Z,102307.27
2018-12-30T22:01:10.002Z,102309.45
2018-12-30T22:03:56.686Z,102298.80
2018-12-30T22:06:24.596Z,102302.30
2018-12-30T22:08:52.144Z,102303.19
2018-12-30T22:11:19.401Z,102298.38
2018-12-30T22:13:46.589Z,102289.62
2018-12-30T22:16:54.609Z,102293.25
2018-12-30T22:22:55.725Z,102290.94
2018-12-30T22:25:22.939Z,102279.73
2018-12-30T22:30:51.067Z,102281.07
2018-12-30T22:33:18.444Z,102288.42
2018-12-30T22:38:46.508Z,102286.32
2018-12-30T22:41:54.441Z,102279.28
2018-12-30T22:47:01.734Z,102280.51
2018-12-30T22:49:31.096Z,102280.51
2018-12-30T22:52:18.065Z,102275.13
2018-12-30T22:54:45.302Z,102277.06
2018-12-30T22:57:24.739Z,102282.56
2018-12-30T22:59:52.307Z,102279.07
2018-12-30T23:02:19.510Z,102287.16
2018-12-30T23:04:46.737Z,102280.17
2018-12-30T23:07:13.830Z,102285.36
2018-12-30T23:10:00.496Z,102285.51
2018-12-30T23:15:48.261Z,102289.39
2018-12-30T23:18:27.201Z,102282.27
2018-12-30T23:20:54.681Z,102273.87
2018-12-30T23:23:21.925Z,102271.73
2018-12-30T23:28:50.255Z,102269.70
2018-12-30T23:31:17.446Z,102269.94
2018-12-30T23:33:56.534Z,102276.40
2018-12-30T23:36:23.710Z,102275.88
2018-12-30T23:38:51.137Z,102285.23
2018-12-30T23:41:37.783Z,102281.73
2018-12-30T23:44:24.342Z,102285.05
2018-12-30T23:47:11.042Z,102285.35
2018-12-30T23:49:38.117Z,102284.61
2018-12-30T23:52:24.868Z,102275.85
2018-12-30T23:54:52.033Z,102270.95
2018-12-30T23:57:19.532Z,102271.73
